createdAt,value
2018-04-22T00:00:15.259Z,54.60
2018-04-22T00:02:42.830Z,54.30
2018-04-22T00:05:10.391Z,54.40
2018-04-22T00:07:37.975Z,54.40
2018-04-22T00:10:05.501Z,54.30
2018-04-22T00:12:33.088Z,54.30
2018-04-22T00:15:00.677Z,54.60
2018-04-22T00:17:28.301Z,54.90
2018-04-22T00:19:55.887Z,54.80
2018-04-22T00:22:23.420Z,54.50
2018-04-22T00:24:51.005Z,54.50
2018-04-22T00:27:18.558Z,54.50
2018-04-22T00:29:46.084Z,55.10
2018-04-22T00:32:13.696Z,54.50
2018-04-22T00:34:41.255Z,54.70
2018-04-22T00:37:08.821Z,54.80
2018-04-22T00:39:36.382Z,54.80
2018-04-22T00:42:03.944Z,54.70
2018-04-22T00:44:31.482Z,54.80
2018-04-22T00:46:59.048Z,54.80
2018-04-22T00:49:26.583Z,54.70
2018-04-22T00:51:54.188Z,54.80
2018-04-22T00:54:21.797Z,54.90
2018-04-22T00:56:49.431Z,54.90
2018-04-22T00:59:17.764Z,54.90
2018-04-22T01:01:45.344Z,54.90
2018-04-22T01:04:12.875Z,55.10
2018-04-22T01:06:40.456Z,55.10
2018-04-22T01:09:08.083Z,55.00
2018-04-22T01:11:35.656Z,55.10
2018-04-22T01:14:03.384Z,55.10
2018-04-22T01:16:31.512Z,55.00
2018-04-22T01:18:59.086Z,55.20
2018-04-22T01:21:26.652Z,55.30
2018-04-22T01:23:54.195Z,55.60
2018-04-22T01:26:21.772Z,55.60
2018-04-22T01:28:49.332Z,55.70
2018-04-22T01:31:16.946Z,55.70
2018-04-22T01:33:44.488Z,55.80
2018-04-22T01:36:12.047Z,55.90
2018-04-22T01:38:40.532Z,56.00
2018-04-22T01:41:08.140Z,55.90
2018-04-22T01:43:35.731Z,56.00
2018-04-22T01:46:05.297Z,56.20
2018-04-22T01:48:32.873Z,56.20
2018-04-22T01:51:00.413Z,56.30
2018-04-22T01:53:27.975Z,56.20
2018-04-22T01:55:55.504Z,56.20
2018-04-22T01:58:23.042Z,56.40
2018-04-22T02:00:51.445Z,56.40
2018-04-22T02:03:19.036Z,56.40
2018-04-22T02:05:46.592Z,56.40
2018-04-22T02:08:14.337Z,56.40
2018-04-22T02:10:41.907Z,56.50
2018-04-22T02:13:09.451Z,56.30
2018-04-22T02:15:37.036Z,56.30
2018-04-22T02:18:04.601Z,55.90
2018-04-22T02:20:32.147Z,56.00
2018-04-22T02:22:59.717Z,55.80
2018-04-22T02:25:27.253Z,55.60
2018-04-22T02:27:54.805Z,55.80
2018-04-22T02:30:22.351Z,55.90
2018-04-22T02:32:49.912Z,55.80
2018-04-22T02:35:17.497Z,56.00
2018-04-22T02:37:45.199Z,56.00
2018-04-22T02:40:12.835Z,56.00
2018-04-22T02:42:40.509Z,56.10
2018-04-22T02:45:08.066Z,56.10
2018-04-22T02:47:35.594Z,56.30
2018-04-22T02:50:03.186Z,56.30
2018-04-22T02:52:30.729Z,56.70
2018-04-22T02:54:58.284Z,56.70
2018-04-22T02:57:25.844Z,56.40
2018-04-22T02:59:53.415Z,56.50
2018-04-22T03:02:20.980Z,56.40
2018-04-22T03:04:48.536Z,56.40
2018-04-22T03:07:16.140Z,56.10
2018-04-22T03:09:44.479Z,56.30
2018-04-22T03:12:12.061Z,56.30
2018-04-22T03:14:39.856Z,56.20
2018-04-22T03:17:07.431Z,56.30
2018-04-22T03:19:34.995Z,56.20
2018-04-22T03:22:02.537Z,56.00
2018-04-22T03:24:30.073Z,56.10
2018-04-22T03:26:58.393Z,56.40
2018-04-22T03:29:25.974Z,56.30
2018-04-22T03:31:53.516Z,56.40
2018-04-22T03:34:21.127Z,56.50
2018-04-22T03:36:49.452Z,56.40
2018-04-22T03:39:16.995Z,56.40
2018-04-22T03:41:44.569Z,56.40
2018-04-22T03:44:12.148Z,56.50
2018-04-22T03:46:39.723Z,56.40
2018-04-22T03:49:07.311Z,56.60
2018-04-22T03:51:34.885Z,56.50
2018-04-22T03:54:02.459Z,56.30
2018-04-22T03:56:29.992Z,56.20
2018-04-22T03:58:57.552Z,56.20
2018-04-22T04:01:25.900Z,56.30
2018-04-22T04:03:53.469Z,56.30
2018-04-22T04:06:21.045Z,56.40
2018-04-22T04:08:48.609Z,56.40
2018-04-22T04:11:16.940Z,56.50
2018-04-22T04:13:44.540Z,56.50
2018-04-22T04:16:12.104Z,56.50
2018-04-22T04:19:00.204Z,56.50
2018-04-22T04:21:39.555Z,56.90
2018-04-22T04:27:17.857Z,57.00
2018-04-22T04:29:45.436Z,56.70
2018-04-22T04:32:12.983Z,56.60
2018-04-22T04:34:40.552Z,56.50
2018-04-22T04:37:08.116Z,56.50
2018-04-22T04:39:35.693Z,56.30
2018-04-22T04:42:03.234Z,56.30
2018-04-22T04:44:30.805Z,56.60
2018-04-22T04:46:58.336Z,56.70
2018-04-22T04:49:25.911Z,56.50
2018-04-22T04:51:53.439Z,56.20
2018-04-22T04:54:21.020Z,56.20
2018-04-22T04:56:48.592Z,56.10
2018-04-22T04:59:16.393Z,56.20
2018-04-22T05:01:44.750Z,56.50
2018-04-22T05:04:12.332Z,56.50
2018-04-22T05:06:39.876Z,56.60
2018-04-22T05:09:07.427Z,56.90
2018-04-22T05:11:35.072Z,56.80
2018-04-22T05:14:02.604Z,56.50
2018-04-22T05:16:30.151Z,56.70
2018-04-22T05:18:58.483Z,57.20
2018-04-22T05:21:26.218Z,57.10
2018-04-22T05:23:53.780Z,57.20
2018-04-22T05:26:21.317Z,57.30
2018-04-22T05:28:48.899Z,57.50
2018-04-22T05:31:16.870Z,57.50
2018-04-22T05:33:44.444Z,57.50
2018-04-22T05:36:11.988Z,57.80
2018-04-22T05:38:39.551Z,57.60
2018-04-22T05:41:07.150Z,57.50
2018-04-22T05:43:34.709Z,57.50
2018-04-22T05:46:02.280Z,57.20
2018-04-22T05:48:29.888Z,57.00
2018-04-22T05:50:57.478Z,56.90
2018-04-22T05:53:25.056Z,56.90
2018-04-22T05:55:52.674Z,56.90
2018-04-22T05:58:20.245Z,56.90
2018-04-22T06:00:47.891Z,57.10
2018-04-22T06:03:15.433Z,57.70
2018-04-22T06:05:42.967Z,56.90
2018-04-22T06:08:11.312Z,56.60
2018-04-22T06:10:38.854Z,56.60
2018-04-22T06:13:06.458Z,56.70
2018-04-22T06:15:33.995Z,56.50
2018-04-22T06:18:01.588Z,56.50
2018-04-22T06:20:29.157Z,56.60
2018-04-22T06:22:56.710Z,56.40
2018-04-22T06:25:25.027Z,56.40
2018-04-22T06:27:52.597Z,56.30
2018-04-22T06:30:20.248Z,56.30
2018-04-22T06:32:47.775Z,56.20
2018-04-22T06:35:16.119Z,56.10
2018-04-22T06:37:44.028Z,56.00
2018-04-22T06:40:11.618Z,55.90
2018-04-22T06:42:39.189Z,55.90
2018-04-22T06:45:06.735Z,55.70
2018-04-22T06:47:34.304Z,55.50
2018-04-22T06:50:01.939Z,55.40
2018-04-22T06:52:29.532Z,55.40
2018-04-22T06:54:57.063Z,55.10
2018-04-22T06:57:24.623Z,54.80
2018-04-22T06:59:52.160Z,54.60
2018-04-22T07:02:19.717Z,54.50
2018-04-22T07:04:48.065Z,54.10
2018-04-22T07:07:15.606Z,54.10
2018-04-22T07:09:43.220Z,53.80
2018-04-22T07:12:10.789Z,53.40
2018-04-22T07:14:38.349Z,53.10
2018-04-22T07:17:05.888Z,52.60
2018-04-22T07:19:33.447Z,52.50
2018-04-22T07:22:01.761Z,51.80
2018-04-22T07:24:29.399Z,51.80
2018-04-22T07:26:56.967Z,51.50
2018-04-22T07:29:24.719Z,51.40
2018-04-22T07:31:52.283Z,51.00
2018-04-22T07:34:20.622Z,50.30
2018-04-22T07:36:48.184Z,50.30
2018-04-22T07:39:15.771Z,49.90
2018-04-22T07:41:43.327Z,49.70
2018-04-22T07:44:11.674Z,49.40
2018-04-22T07:46:39.281Z,49.30
2018-04-22T07:49:06.852Z,49.20
2018-04-22T07:51:34.397Z,48.60
2018-04-22T07:54:02.688Z,48.40
2018-04-22T07:56:30.336Z,48.40
2018-04-22T07:58:57.936Z,48.00
2018-04-22T08:01:25.476Z,47.80
2018-04-22T08:03:53.090Z,47.40
2018-04-22T08:06:20.680Z,47.40
2018-04-22T08:08:49.065Z,47.00
2018-04-22T08:11:17.388Z,46.90
2018-04-22T08:13:45.057Z,46.90
2018-04-22T08:16:12.644Z,46.60
2018-04-22T08:18:40.221Z,46.60
2018-04-22T08:21:07.819Z,46.50
2018-04-22T08:23:35.395Z,46.60
2018-04-22T08:26:03.008Z,46.50
2018-04-22T08:28:30.668Z,46.70
2018-04-22T08:30:58.303Z,46.50
2018-04-22T08:33:25.875Z,46.50
2018-04-22T08:35:53.423Z,47.00
2018-04-22T08:38:20.992Z,46.20
2018-04-22T08:40:49.428Z,45.70
2018-04-22T08:43:16.965Z,45.60
2018-04-22T08:45:44.532Z,45.60
2018-04-22T08:48:12.121Z,45.80
2018-04-22T08:50:39.767Z,45.80
2018-04-22T08:53:07.299Z,45.20
2018-04-22T08:55:34.885Z,45.20
2018-04-22T08:58:02.475Z,44.30
2018-04-22T09:00:30.025Z,44.40
2018-04-22T09:02:57.639Z,44.20
2018-04-22T09:05:25.179Z,43.60
2018-04-22T09:07:53.574Z,43.90
2018-04-22T09:10:21.863Z,44.20
2018-04-22T09:12:49.400Z,44.20
2018-04-22T09:15:17.780Z,43.60
2018-04-22T09:17:45.335Z,43.60
2018-04-22T09:20:12.933Z,43.70
2018-04-22T09:22:40.524Z,44.20
2018-04-22T09:25:08.084Z,44.10
2018-04-22T09:27:35.644Z,43.40
2018-04-22T09:30:03.265Z,43.80
2018-04-22T09:32:30.804Z,43.50
2018-04-22T09:34:59.106Z,43.30
2018-04-22T09:37:26.704Z,43.30
2018-04-22T09:39:54.284Z,43.90
2018-04-22T09:42:21.856Z,43.80
2018-04-22T09:44:49.449Z,44.00
2018-04-22T09:47:16.989Z,43.70
2018-04-22T09:49:44.547Z,43.70
2018-04-22T09:52:12.097Z,43.70
2018-04-22T09:54:39.675Z,43.90
2018-04-22T09:57:07.276Z,43.90
2018-04-22T09:59:34.876Z,44.00
2018-04-22T10:02:02.445Z,44.00
2018-04-22T10:04:30.033Z,44.00
2018-04-22T10:06:57.580Z,43.60
2018-04-22T10:09:25.168Z,43.80
2018-04-22T10:11:52.749Z,43.70
2018-04-22T10:14:20.359Z,43.60
2018-04-22T10:16:48.033Z,43.70
2018-04-22T10:19:15.558Z,43.90
2018-04-22T10:21:43.121Z,43.90
2018-04-22T10:24:11.416Z,43.90
2018-04-22T10:26:38.995Z,43.90
2018-04-22T10:29:06.598Z,44.10
2018-04-22T10:31:34.164Z,43.50
2018-04-22T10:34:01.698Z,43.80
2018-04-22T10:36:29.272Z,43.80
2018-04-22T10:38:56.867Z,43.70
2018-04-22T10:41:25.145Z,43.00
2018-04-22T10:43:52.706Z,43.00
2018-04-22T10:46:20.288Z,42.40
2018-04-22T10:48:47.854Z,41.90
2018-04-22T10:51:15.435Z,41.90
2018-04-22T10:53:43.008Z,42.20
2018-04-22T10:56:10.600Z,41.90
2018-04-22T10:58:38.937Z,40.10
2018-04-22T11:01:06.576Z,40.10
2018-04-22T11:03:34.129Z,39.30
2018-04-22T11:06:01.749Z,38.80
2018-04-22T11:08:29.359Z,39.00
2018-04-22T11:10:56.972Z,39.50
2018-04-22T11:13:25.372Z,39.80
2018-04-22T11:15:52.934Z,39.70
2018-04-22T11:18:20.467Z,39.30
2018-04-22T11:20:48.824Z,37.30
2018-04-22T11:23:16.396Z,37.30
2018-04-22T11:25:43.980Z,38.50
2018-04-22T11:28:11.559Z,37.70
2018-04-22T11:30:39.131Z,36.80
2018-04-22T11:33:06.678Z,36.00
2018-04-22T11:35:34.272Z,36.40
2018-04-22T11:38:01.829Z,36.90
2018-04-22T11:40:29.359Z,36.70
2018-04-22T11:42:56.915Z,37.20
2018-04-22T11:45:24.500Z,36.30
2018-04-22T11:47:52.071Z,36.30
2018-04-22T11:50:19.614Z,36.80
2018-04-22T11:52:47.220Z,37.70
2018-04-22T11:55:15.383Z,37.00
2018-04-22T11:57:43.004Z,37.50
2018-04-22T12:00:10.611Z,36.60
2018-04-22T12:02:38.126Z,37.20
2018-04-22T12:05:06.659Z,37.60
2018-04-22T12:07:34.220Z,37.90
2018-04-22T12:10:02.567Z,38.20
2018-04-22T12:12:30.144Z,38.10
2018-04-22T12:14:57.719Z,38.50
2018-04-22T12:17:26.255Z,38.90
2018-04-22T12:19:53.832Z,38.90
2018-04-22T12:22:21.383Z,38.50
2018-04-22T12:24:48.999Z,38.70
2018-04-22T12:27:16.547Z,39.00
2018-04-22T12:29:44.132Z,37.50
2018-04-22T12:32:11.660Z,37.70
2018-04-22T12:34:39.188Z,37.50
2018-04-22T12:37:06.759Z,37.00
2018-04-22T12:39:34.315Z,37.30
2018-04-22T12:42:01.918Z,37.50
2018-04-22T12:44:29.474Z,37.70
2018-04-22T12:46:57.872Z,38.60
2018-04-22T12:49:25.419Z,38.50
2018-04-22T12:51:52.981Z,38.00
2018-04-22T12:54:20.542Z,38.60
2018-04-22T12:56:48.863Z,38.20
2018-04-22T12:59:16.793Z,38.00
2018-04-22T13:01:44.453Z,38.30
2018-04-22T13:04:12.036Z,38.60
2018-04-22T13:06:39.596Z,39.00
2018-04-22T13:09:07.839Z,39.20
2018-04-22T13:11:36.135Z,39.00
2018-04-22T13:14:03.765Z,39.00
2018-04-22T13:16:31.327Z,38.30
2018-04-22T13:18:59.706Z,37.70
2018-04-22T13:21:28.036Z,37.50
2018-04-22T13:23:55.563Z,37.40
2018-04-22T13:26:23.131Z,37.30
2018-04-22T13:28:50.653Z,37.60
2018-04-22T13:31:18.183Z,37.30
2018-04-22T13:33:45.796Z,37.60
2018-04-22T13:36:13.345Z,36.40
2018-04-22T13:38:41.693Z,37.60
2018-04-22T13:41:09.296Z,37.50
2018-04-22T13:43:37.631Z,37.90
2018-04-22T13:46:05.181Z,37.90
2018-04-22T13:48:32.749Z,38.00
2018-04-22T13:51:00.319Z,37.10
2018-04-22T13:53:27.860Z,36.50
2018-04-22T13:55:55.490Z,37.50
2018-04-22T13:58:23.077Z,38.10
2018-04-22T14:00:50.643Z,38.00
2018-04-22T14:03:18.269Z,38.30
2018-04-22T14:05:45.819Z,38.40
2018-04-22T14:08:13.375Z,38.50
2018-04-22T14:10:40.935Z,37.70
2018-04-22T14:13:09.215Z,38.00
2018-04-22T14:15:36.776Z,38.00
2018-04-22T14:18:04.314Z,37.00
2018-04-22T14:20:32.903Z,36.40
2018-04-22T14:23:00.520Z,36.40
2018-04-22T14:25:28.038Z,36.40
2018-04-22T14:27:55.616Z,36.60
2018-04-22T14:30:23.144Z,36.40
2018-04-22T14:32:50.686Z,36.70
2018-04-22T14:35:18.248Z,37.10
2018-04-22T14:37:45.792Z,36.50
2018-04-22T14:40:13.368Z,37.10
2018-04-22T14:42:40.944Z,37.60
2018-04-22T14:45:21.094Z,38.40
2018-04-22T14:47:48.661Z,38.30
2018-04-22T14:50:16.234Z,37.10
2018-04-22T14:52:43.801Z,37.30
2018-04-22T14:55:11.351Z,36.90
2018-04-22T14:57:38.944Z,37.10
2018-04-22T15:00:06.485Z,37.20
2018-04-22T15:02:34.061Z,37.50
2018-04-22T15:05:01.586Z,37.60
2018-04-22T15:07:29.945Z,37.40
2018-04-22T15:09:58.261Z,37.50
2018-04-22T15:12:25.799Z,37.40
2018-04-22T15:14:54.127Z,37.30
2018-04-22T15:17:21.710Z,37.20
2018-04-22T15:19:49.298Z,37.10
2018-04-22T15:22:16.914Z,37.60
2018-04-22T15:24:44.492Z,37.80
2018-04-22T15:27:12.085Z,37.00
2018-04-22T15:29:40.461Z,37.80
2018-04-22T15:32:08.841Z,37.60
2018-04-22T15:34:37.170Z,37.70
2018-04-22T15:37:04.825Z,37.70
2018-04-22T15:39:32.391Z,38.20
2018-04-22T15:41:59.956Z,38.50
2018-04-22T15:44:27.515Z,38.40
2018-04-22T15:46:55.145Z,38.40
2018-04-22T15:49:22.723Z,38.60
2018-04-22T15:51:50.311Z,38.60
2018-04-22T15:54:17.956Z,38.40
2018-04-22T15:56:45.561Z,38.50
2018-04-22T15:59:13.873Z,38.40
2018-04-22T16:01:41.490Z,38.30
2018-04-22T16:04:09.051Z,38.20
2018-04-22T16:06:36.608Z,37.80
2018-04-22T16:09:04.220Z,38.20
2018-04-22T16:11:31.750Z,37.70
2018-04-22T16:13:59.346Z,37.30
2018-04-22T16:16:26.902Z,37.50
2018-04-22T16:18:54.469Z,37.20
2018-04-22T16:21:22.088Z,37.10
2018-04-22T16:23:49.609Z,37.10
2018-04-22T16:26:17.175Z,37.50
2018-04-22T16:28:44.740Z,37.60
2018-04-22T16:31:12.297Z,37.80
2018-04-22T16:33:39.857Z,38.10
2018-04-22T16:36:08.185Z,38.50
2018-04-22T16:38:35.849Z,38.40
2018-04-22T16:41:03.479Z,38.60
2018-04-22T16:43:31.039Z,38.90
2018-04-22T16:45:58.682Z,39.40
2018-04-22T16:48:27.010Z,39.80
2018-04-22T16:50:54.741Z,39.80
2018-04-22T16:53:22.324Z,40.00
2018-04-22T16:55:49.896Z,40.20
2018-04-22T16:58:17.449Z,40.30
2018-04-22T17:00:45.041Z,40.30
2018-04-22T17:03:12.628Z,40.20
2018-04-22T17:05:40.200Z,40.30
2018-04-22T17:08:08.487Z,40.50
2018-04-22T17:10:36.057Z,40.40
2018-04-22T17:13:03.607Z,40.80
2018-04-22T17:15:31.401Z,40.60
2018-04-22T17:17:59.032Z,40.70
2018-04-22T17:20:26.697Z,40.90
2018-04-22T17:22:54.336Z,40.60
2018-04-22T17:25:21.971Z,40.90
2018-04-22T17:27:49.556Z,41.20
2018-04-22T17:30:17.202Z,41.40
2018-04-22T17:32:44.745Z,41.60
2018-04-22T17:35:12.387Z,41.50
2018-04-22T17:37:40.112Z,41.70
2018-04-22T17:40:08.429Z,41.90
2018-04-22T17:42:36.092Z,41.70
2018-04-22T17:45:03.670Z,41.80
2018-04-22T17:47:31.276Z,41.90
2018-04-22T17:49:59.607Z,42.20
2018-04-22T17:52:27.149Z,42.10
2018-04-22T17:54:54.733Z,42.20
2018-04-22T17:57:22.342Z,42.20
2018-04-22T17:59:50.667Z,42.50
2018-04-22T18:02:18.227Z,42.50
2018-04-22T18:04:45.764Z,42.70
2018-04-22T18:07:13.404Z,43.10
2018-04-22T18:09:41.012Z,43.30
2018-04-22T18:12:08.581Z,43.20
2018-04-22T18:14:36.172Z,43.20
2018-04-22T18:17:05.148Z,43.40
2018-04-22T18:19:33.693Z,43.40
2018-04-22T18:22:01.266Z,43.70
2018-04-22T18:24:28.829Z,43.80
2018-04-22T18:26:56.476Z,44.10
2018-04-22T18:29:24.051Z,44.40
2018-04-22T18:31:51.620Z,44.60
2018-04-22T18:34:19.259Z,44.80
2018-04-22T18:36:46.827Z,45.00
2018-04-22T18:39:14.393Z,45.20
2018-04-22T18:41:41.940Z,45.30
2018-04-22T18:44:09.499Z,45.50
2018-04-22T18:46:37.074Z,46.00
2018-04-22T18:49:04.628Z,45.90
2018-04-22T18:51:32.187Z,45.90
2018-04-22T18:53:59.753Z,46.00
2018-04-22T18:56:27.363Z,46.20
2018-04-22T18:58:55.032Z,46.30
2018-04-22T19:01:22.999Z,46.40
2018-04-22T19:03:50.574Z,46.30
2018-04-22T19:06:18.148Z,46.50
2018-04-22T19:08:45.713Z,46.70
2018-04-22T19:11:13.354Z,46.70
2018-04-22T19:13:40.919Z,46.80
2018-04-22T19:16:08.529Z,46.90
2018-04-22T19:18:36.112Z,46.90
2018-04-22T19:21:04.449Z,47.10
2018-04-22T19:23:31.994Z,47.00
2018-04-22T19:25:59.559Z,47.20
2018-04-22T19:28:27.162Z,47.30
2018-04-22T19:30:54.779Z,47.40
2018-04-22T19:33:22.363Z,47.50
2018-04-22T19:35:49.985Z,47.50
2018-04-22T19:38:17.524Z,47.50
2018-04-22T19:40:45.121Z,47.60
2018-04-22T19:43:12.664Z,47.80
2018-04-22T19:45:40.284Z,48.00
2018-04-22T19:48:08.619Z,48.00
2018-04-22T19:50:36.192Z,48.00
2018-04-22T19:53:03.721Z,47.90
2018-04-22T19:55:31.295Z,48.00
2018-04-22T19:57:59.698Z,48.20
2018-04-22T20:00:27.236Z,48.20
2018-04-22T20:02:54.840Z,48.40
2018-04-22T20:05:22.499Z,48.30
2018-04-22T20:07:50.063Z,48.40
2018-04-22T20:10:17.728Z,48.50
2018-04-22T20:12:45.961Z,48.80
2018-04-22T20:15:13.528Z,48.90
2018-04-22T20:17:41.108Z,49.00
2018-04-22T20:20:08.644Z,49.30
2018-04-22T20:22:36.221Z,49.40
2018-04-22T20:25:03.903Z,49.60
2018-04-22T20:27:31.424Z,49.60
2018-04-22T20:29:58.983Z,49.70
2018-04-22T20:32:26.547Z,49.80
2018-04-22T20:34:54.087Z,49.80
2018-04-22T20:37:21.692Z,49.90
2018-04-22T20:39:49.231Z,50.10
2018-04-22T20:42:16.799Z,50.20
2018-04-22T20:44:44.375Z,50.30
2018-04-22T20:47:11.955Z,50.50
2018-04-22T20:49:39.558Z,50.50
2018-04-22T20:52:07.077Z,50.70
2018-04-22T20:54:34.640Z,50.80
2018-04-22T20:57:02.222Z,50.90
2018-04-22T20:59:29.739Z,50.90
2018-04-22T21:01:57.308Z,51.00
2018-04-22T21:04:25.625Z,51.00
2018-04-22T21:06:53.230Z,51.00
2018-04-22T21:09:20.823Z,51.10
2018-04-22T21:11:48.405Z,51.30
2018-04-22T21:14:15.963Z,51.20
2018-04-22T21:16:43.525Z,51.40
2018-04-22T21:19:11.098Z,51.50
2018-04-22T21:21:38.657Z,51.60
2018-04-22T21:24:06.231Z,51.60
2018-04-22T21:26:33.793Z,51.70
2018-04-22T21:29:01.337Z,51.70
2018-04-22T21:31:28.862Z,51.80
2018-04-22T21:33:56.544Z,52.10
2018-04-22T21:36:24.068Z,52.30
2018-04-22T21:38:52.395Z,52.70
2018-04-22T21:41:19.958Z,52.60
2018-04-22T21:43:47.528Z,52.70
2018-04-22T21:46:15.081Z,52.70
2018-04-22T21:48:42.636Z,52.80
2018-04-22T21:51:10.989Z,52.80
2018-04-22T21:53:38.561Z,52.80
2018-04-22T21:56:06.145Z,53.00
2018-04-22T21:58:33.711Z,53.00
2018-04-22T22:01:01.242Z,53.10
2018-04-22T22:03:28.791Z,53.10
2018-04-22T22:05:56.330Z,53.30
2018-04-22T22:08:24.171Z,53.30
2018-04-22T22:10:51.703Z,53.20
2018-04-22T22:13:19.326Z,53.30
2018-04-22T22:15:46.901Z,53.40
2018-04-22T22:18:14.479Z,53.40
2018-04-22T22:20:42.063Z,53.50
2018-04-22T22:23:09.628Z,53.70
2018-04-22T22:25:37.207Z,53.50
2018-04-22T22:28:04.828Z,53.30
2018-04-22T22:30:32.410Z,53.50
2018-04-22T22:32:59.968Z,53.50
2018-04-22T22:35:27.525Z,53.50
2018-04-22T22:37:55.086Z,53.60
2018-04-22T22:40:22.661Z,53.70
2018-04-22T22:42:50.980Z,53.70
2018-04-22T22:45:18.562Z,53.60
2018-04-22T22:47:46.178Z,54.00
2018-04-22T22:50:13.724Z,53.70
2018-04-22T22:52:42.035Z,53.70
2018-04-22T22:55:09.559Z,53.70
2018-04-22T22:57:37.888Z,53.60
2018-04-22T23:00:05.514Z,53.60
2018-04-22T23:02:33.096Z,53.80
2018-04-22T23:05:00.671Z,53.70
2018-04-22T23:07:28.265Z,53.70
2018-04-22T23:09:55.816Z,53.80
2018-04-22T23:12:23.348Z,53.80
2018-04-22T23:14:50.914Z,54.60
2018-04-22T23:17:18.471Z,53.70
2018-04-22T23:19:46.326Z,53.70
2018-04-22T23:22:13.882Z,53.70
2018-04-22T23:24:41.463Z,54.00
2018-04-22T23:27:09.020Z,54.00
2018-04-22T23:29:36.563Z,53.80
2018-04-22T23:32:04.120Z,53.60
2018-04-22T23:34:31.664Z,53.60
2018-04-22T23:36:59.224Z,53.60
2018-04-22T23:39:26.755Z,53.70
2018-04-22T23:41:54.318Z,53.70
2018-04-22T23:44:22.681Z,53.80
2018-04-22T23:46:50.257Z,53.70
2018-04-22T23:49:17.797Z,53.80
2018-04-22T23:51:45.328Z,53.80
2018-04-22T23:54:12.920Z,54.00
2018-04-22T23:56:40.496Z,54.00
2018-04-22T23:59:08.057Z,54.10
